Baltimore, Maryland
Traffic Map
Current Weather Conditions
Baltimore, Maryland
Scattered Clouds
Scattered Clouds
20°
Feels Like: 20°
Wind Chill: 20° Ceiling: Unl
Heat Index: 20° Visibility: 10mi
Dew Point: 14° Wind: 0mph
Humidity: 68% Direction: ° ()
Pressure: 30.01in Gusts: 0mph
Raw Report DataKBWI 260254Z 00000KT 10SM SCT250 20/14 A3001 RMK AO2 SLP159 T02000139 58002
Traffic Incident Summary
Active as of:
Severity:
Category:
InformationThere was an issue retrieving the traffic information for this location. Please try a different location or try again shortly.
Advertisements
Track Severe Weather on mobile